sensor_id;sensor_type;location;lat;lon;timestamp;P1;durP1;ratioP1;P2;durP2;ratioP2
305;SDS011;137;48.578;9.180;2022-10-18T00:02:02;6.33;;;4.10;;
305;SDS011;137;48.578;9.180;2022-10-18T00:04:29;7.23;;;5.60;;
305;SDS011;137;48.578;9.180;2022-10-18T00:06:56;7.33;;;4.50;;
305;SDS011;137;48.578;9.180;2022-10-18T00:09:23;6.37;;;4.63;;
305;SDS011;137;48.578;9.180;2022-10-18T00:11:51;6.83;;;5.23;;
305;SDS011;137;48.578;9.180;2022-10-18T00:14:18;6.47;;;4.07;;
305;SDS011;137;48.578;9.180;2022-10-18T00:16:45;5.17;;;4.30;;
305;SDS011;137;48.578;9.180;2022-10-18T00:19:13;10.33;;;5.13;;
305;SDS011;137;48.578;9.180;2022-10-18T00:21:40;7.27;;;4.67;;
305;SDS011;137;48.578;9.180;2022-10-18T00:24:07;6.07;;;4.83;;
305;SDS011;137;48.578;9.180;2022-10-18T00:26:34;4.90;;;4.50;;
305;SDS011;137;48.578;9.180;2022-10-18T00:29:03;7.60;;;4.93;;
305;SDS011;137;48.578;9.180;2022-10-18T00:31:31;9.20;;;4.10;;
305;SDS011;137;48.578;9.180;2022-10-18T00:34:01;7.97;;;5.50;;
305;SDS011;137;48.578;9.180;2022-10-18T00:36:31;12.60;;;6.23;;
305;SDS011;137;48.578;9.180;2022-10-18T00:38:59;9.20;;;5.03;;
305;SDS011;137;48.578;9.180;2022-10-18T00:41:27;8.67;;;5.07;;
305;SDS011;137;48.578;9.180;2022-10-18T00:43:57;5.90;;;4.67;;
305;SDS011;137;48.578;9.180;2022-10-18T00:46:27;6.03;;;4.80;;
305;SDS011;137;48.578;9.180;2022-10-18T00:48:56;12.70;;;7.20;;
305;SDS011;137;48.578;9.180;2022-10-18T00:51:26;9.73;;;4.60;;
305;SDS011;137;48.578;9.180;2022-10-18T00:53:57;11.03;;;4.60;;
305;SDS011;137;48.578;9.180;2022-10-18T00:56:24;6.90;;;4.80;;
305;SDS011;137;48.578;9.180;2022-10-18T00:58:51;5.60;;;4.53;;
305;SDS011;137;48.578;9.180;2022-10-18T01:01:18;6.47;;;4.70;;
305;SDS011;137;48.578;9.180;2022-10-18T01:03:45;8.70;;;4.60;;
305;SDS011;137;48.578;9.180;2022-10-18T01:06:12;8.07;;;6.27;;
305;SDS011;137;48.578;9.180;2022-10-18T01:08:42;5.23;;;4.40;;
305;SDS011;137;48.578;9.180;2022-10-18T01:11:31;9.57;;;4.57;;
305;SDS011;137;48.578;9.180;2022-10-18T01:14:08;8.00;;;4.50;;
305;SDS011;137;48.578;9.180;2022-10-18T01:16:45;4.80;;;4.40;;
305;SDS011;137;48.578;9.180;2022-10-18T01:19:25;12.93;;;4.30;;
305;SDS011;137;48.578;9.180;2022-10-18T01:22:12;8.33;;;4.50;;
305;SDS011;137;48.578;9.180;2022-10-18T01:24:45;10.90;;;4.70;;
305;SDS011;137;48.578;9.180;2022-10-18T01:27:29;12.83;;;4.90;;
305;SDS011;137;48.578;9.180;2022-10-18T01:33:24;5.73;;;4.00;;
305;SDS011;137;48.578;9.180;2022-10-18T01:35:56;8.70;;;3.67;;
305;SDS011;137;48.578;9.180;2022-10-18T01:38:26;6.60;;;5.40;;
305;SDS011;137;48.578;9.180;2022-10-18T01:40:57;4.50;;;3.17;;
305;SDS011;137;48.578;9.180;2022-10-18T01:43:25;7.00;;;4.10;;
305;SDS011;137;48.578;9.180;2022-10-18T01:45:54;6.93;;;3.80;;
305;SDS011;137;48.578;9.180;2022-10-18T01:48:23;13.60;;;4.60;;
305;SDS011;137;48.578;9.180;2022-10-18T01:50:51;4.27;;;3.60;;
305;SDS011;137;48.578;9.180;2022-10-18T01:53:22;6.50;;;4.50;;
305;SDS011;137;48.578;9.180;2022-10-18T01:55:54;7.63;;;4.53;;
305;SDS011;137;48.578;9.180;2022-10-18T01:58:35;6.67;;;3.87;;
305;SDS011;137;48.578;9.180;2022-10-18T02:01:07;9.13;;;4.80;;
305;SDS011;137;48.578;9.180;2022-10-18T02:03:44;9.77;;;4.07;;
305;SDS011;137;48.578;9.180;2022-10-18T02:06:16;7.90;;;4.27;;
305;SDS011;137;48.578;9.180;2022-10-18T02:08:45;7.70;;;3.93;;
305;SDS011;137;48.578;9.180;2022-10-18T02:11:17;5.67;;;3.87;;
305;SDS011;137;48.578;9.180;2022-10-18T02:13:44;7.20;;;4.30;;
305;SDS011;137;48.578;9.180;2022-10-18T02:16:17;6.90;;;3.47;;
305;SDS011;137;48.578;9.180;2022-10-18T02:18:51;5.40;;;3.63;;
305;SDS011;137;48.578;9.180;2022-10-18T02:21:23;7.47;;;3.37;;
305;SDS011;137;48.578;9.180;2022-10-18T02:23:52;5.00;;;3.30;;
305;SDS011;137;48.578;9.180;2022-10-18T02:26:20;5.20;;;3.97;;
305;SDS011;137;48.578;9.180;2022-10-18T02:28:47;7.93;;;3.80;;
305;SDS011;137;48.578;9.180;2022-10-18T02:31:15;6.40;;;3.93;;
305;SDS011;137;48.578;9.180;2022-10-18T02:33:49;10.90;;;3.90;;
305;SDS011;137;48.578;9.180;2022-10-18T02:36:21;7.10;;;4.40;;
305;SDS011;137;48.578;9.180;2022-10-18T02:38:52;7.40;;;4.30;;
305;SDS011;137;48.578;9.180;2022-10-18T02:41:22;4.27;;;3.87;;
305;SDS011;137;48.578;9.180;2022-10-18T02:43:50;8.93;;;4.20;;
305;SDS011;137;48.578;9.180;2022-10-18T02:46:16;4.63;;;3.50;;
305;SDS011;137;48.578;9.180;2022-10-18T02:48:43;10.10;;;3.90;;
305;SDS011;137;48.578;9.180;2022-10-18T02:51:12;5.53;;;3.60;;
305;SDS011;137;48.578;9.180;2022-10-18T02:53:39;8.23;;;4.20;;
305;SDS011;137;48.578;9.180;2022-10-18T02:56:05;8.47;;;4.30;;
305;SDS011;137;48.578;9.180;2022-10-18T02:58:33;10.00;;;4.40;;
305;SDS011;137;48.578;9.180;2022-10-18T03:00:59;5.93;;;4.10;;
305;SDS011;137;48.578;9.180;2022-10-18T03:03:26;6.83;;;4.13;;
305;SDS011;137;48.578;9.180;2022-10-18T03:05:53;5.00;;;3.53;;
305;SDS011;137;48.578;9.180;2022-10-18T03:08:21;4.60;;;4.00;;
305;SDS011;137;48.578;9.180;2022-10-18T03:10:48;7.20;;;3.43;;
305;SDS011;137;48.578;9.180;2022-10-18T03:13:15;4.10;;;3.70;;
305;SDS011;137;48.578;9.180;2022-10-18T03:15:41;4.43;;;3.80;;
305;SDS011;137;48.578;9.180;2022-10-18T03:18:08;3.80;;;3.50;;
305;SDS011;137;48.578;9.180;2022-10-18T03:20:35;8.23;;;4.43;;
305;SDS011;137;48.578;9.180;2022-10-18T03:23:02;6.00;;;3.90;;
305;SDS011;137;48.578;9.180;2022-10-18T03:25:32;4.20;;;3.80;;
305;SDS011;137;48.578;9.180;2022-10-18T03:27:59;9.70;;;3.37;;
305;SDS011;137;48.578;9.180;2022-10-18T03:30:26;5.43;;;3.47;;
305;SDS011;137;48.578;9.180;2022-10-18T03:32:52;6.40;;;3.53;;
305;SDS011;137;48.578;9.180;2022-10-18T03:35:19;5.50;;;3.70;;
305;SDS011;137;48.578;9.180;2022-10-18T03:37:46;8.00;;;3.83;;
305;SDS011;137;48.578;9.180;2022-10-18T03:40:13;12.60;;;7.37;;
305;SDS011;137;48.578;9.180;2022-10-18T03:42:41;11.30;;;8.97;;
305;SDS011;137;48.578;9.180;2022-10-18T03:45:08;9.30;;;6.50;;
305;SDS011;137;48.578;9.180;2022-10-18T03:47:35;5.37;;;4.60;;
305;SDS011;137;48.578;9.180;2022-10-18T03:50:02;7.10;;;4.10;;
305;SDS011;137;48.578;9.180;2022-10-18T03:52:30;6.77;;;3.90;;
305;SDS011;137;48.578;9.180;2022-10-18T03:54:56;7.70;;;4.30;;
305;SDS011;137;48.578;9.180;2022-10-18T03:57:23;9.10;;;4.17;;
305;SDS011;137;48.578;9.180;2022-10-18T03:59:51;11.00;;;4.23;;
305;SDS011;137;48.578;9.180;2022-10-18T04:02:18;8.80;;;4.13;;
305;SDS011;137;48.578;9.180;2022-10-18T04:04:45;4.20;;;3.80;;
305;SDS011;137;48.578;9.180;2022-10-18T04:07:11;9.40;;;4.23;;
305;SDS011;137;48.578;9.180;2022-10-18T04:09:38;4.40;;;4.00;;
305;SDS011;137;48.578;9.180;2022-10-18T04:12:05;9.97;;;4.63;;
305;SDS011;137;48.578;9.180;2022-10-18T04:14:32;7.90;;;3.70;;
305;SDS011;137;48.578;9.180;2022-10-18T04:17:00;4.87;;;3.50;;
305;SDS011;137;48.578;9.180;2022-10-18T04:19:26;9.00;;;4.60;;
305;SDS011;137;48.578;9.180;2022-10-18T04:21:53;5.80;;;3.70;;
305;SDS011;137;48.578;9.180;2022-10-18T04:24:20;6.93;;;3.73;;
305;SDS011;137;48.578;9.180;2022-10-18T04:26:47;4.80;;;4.33;;
305;SDS011;137;48.578;9.180;2022-10-18T04:29:13;4.77;;;3.67;;
305;SDS011;137;48.578;9.180;2022-10-18T04:31:40;8.17;;;4.10;;
305;SDS011;137;48.578;9.180;2022-10-18T04:34:09;6.70;;;3.30;;
305;SDS011;137;48.578;9.180;2022-10-18T04:36:36;7.07;;;4.00;;
305;SDS011;137;48.578;9.180;2022-10-18T04:39:03;4.80;;;4.00;;
305;SDS011;137;48.578;9.180;2022-10-18T04:41:30;6.73;;;5.00;;
305;SDS011;137;48.578;9.180;2022-10-18T04:43:56;5.20;;;3.73;;
305;SDS011;137;48.578;9.180;2022-10-18T04:46:23;8.30;;;4.30;;
305;SDS011;137;48.578;9.180;2022-10-18T04:48:50;6.17;;;4.07;;
305;SDS011;137;48.578;9.180;2022-10-18T04:51:18;4.10;;;3.70;;
305;SDS011;137;48.578;9.180;2022-10-18T04:53:45;5.40;;;4.53;;
305;SDS011;137;48.578;9.180;2022-10-18T04:56:12;4.47;;;3.97;;
305;SDS011;137;48.578;9.180;2022-10-18T04:58:38;5.83;;;4.03;;
305;SDS011;137;48.578;9.180;2022-10-18T05:01:05;6.90;;;4.70;;
305;SDS011;137;48.578;9.180;2022-10-18T05:03:33;5.43;;;4.20;;
305;SDS011;137;48.578;9.180;2022-10-18T05:06:00;6.60;;;4.10;;
305;SDS011;137;48.578;9.180;2022-10-18T05:08:28;5.10;;;4.43;;
305;SDS011;137;48.578;9.180;2022-10-18T05:10:55;7.20;;;3.63;;
305;SDS011;137;48.578;9.180;2022-10-18T05:13:22;8.60;;;4.40;;
305;SDS011;137;48.578;9.180;2022-10-18T05:15:49;5.53;;;4.30;;
305;SDS011;137;48.578;9.180;2022-10-18T05:18:16;5.43;;;4.77;;
305;SDS011;137;48.578;9.180;2022-10-18T05:20:43;5.90;;;4.17;;
305;SDS011;137;48.578;9.180;2022-10-18T05:23:10;5.27;;;4.60;;
305;SDS011;137;48.578;9.180;2022-10-18T05:25:38;6.77;;;4.50;;
305;SDS011;137;48.578;9.180;2022-10-18T05:28:05;7.67;;;4.47;;
305;SDS011;137;48.578;9.180;2022-10-18T05:30:32;5.10;;;3.97;;
305;SDS011;137;48.578;9.180;2022-10-18T05:33:02;5.60;;;4.10;;
305;SDS011;137;48.578;9.180;2022-10-18T05:35:29;6.30;;;4.60;;
305;SDS011;137;48.578;9.180;2022-10-18T05:37:55;5.13;;;4.00;;
305;SDS011;137;48.578;9.180;2022-10-18T05:40:22;4.53;;;3.83;;
305;SDS011;137;48.578;9.180;2022-10-18T05:42:51;6.17;;;4.63;;
305;SDS011;137;48.578;9.180;2022-10-18T05:45:18;6.00;;;4.20;;
305;SDS011;137;48.578;9.180;2022-10-18T05:47:45;5.27;;;4.50;;
305;SDS011;137;48.578;9.180;2022-10-18T05:50:11;10.80;;;5.50;;
305;SDS011;137;48.578;9.180;2022-10-18T05:52:38;8.60;;;4.80;;
305;SDS011;137;48.578;9.180;2022-10-18T05:55:05;10.17;;;5.73;;
305;SDS011;137;48.578;9.180;2022-10-18T05:57:33;6.30;;;4.40;;
305;SDS011;137;48.578;9.180;2022-10-18T06:00:01;4.70;;;4.00;;
305;SDS011;137;48.578;9.180;2022-10-18T06:02:29;7.20;;;4.23;;
305;SDS011;137;48.578;9.180;2022-10-18T06:04:56;5.13;;;4.17;;
305;SDS011;137;48.578;9.180;2022-10-18T06:07:22;6.20;;;4.40;;
305;SDS011;137;48.578;9.180;2022-10-18T06:09:49;7.03;;;3.87;;
305;SDS011;137;48.578;9.180;2022-10-18T06:12:16;8.30;;;4.40;;
305;SDS011;137;48.578;9.180;2022-10-18T06:14:43;5.03;;;4.53;;
305;SDS011;137;48.578;9.180;2022-10-18T06:17:14;5.23;;;3.83;;
305;SDS011;137;48.578;9.180;2022-10-18T06:19:41;7.30;;;4.60;;
305;SDS011;137;48.578;9.180;2022-10-18T06:22:08;4.97;;;4.50;;
305;SDS011;137;48.578;9.180;2022-10-18T06:24:35;6.87;;;4.20;;
305;SDS011;137;48.578;9.180;2022-10-18T06:27:02;5.17;;;3.47;;
305;SDS011;137;48.578;9.180;2022-10-18T06:29:43;4.63;;;4.20;;
305;SDS011;137;48.578;9.180;2022-10-18T06:32:29;8.10;;;5.17;;
305;SDS011;137;48.578;9.180;2022-10-18T06:35:10;11.70;;;3.83;;
305;SDS011;137;48.578;9.180;2022-10-18T06:37:37;7.23;;;3.87;;
305;SDS011;137;48.578;9.180;2022-10-18T06:40:04;9.93;;;4.87;;
305;SDS011;137;48.578;9.180;2022-10-18T06:42:31;7.53;;;4.97;;
305;SDS011;137;48.578;9.180;2022-10-18T06:44:58;5.50;;;4.10;;
305;SDS011;137;48.578;9.180;2022-10-18T06:47:27;7.00;;;4.03;;
305;SDS011;137;48.578;9.180;2022-10-18T06:49:53;5.57;;;4.63;;
305;SDS011;137;48.578;9.180;2022-10-18T06:52:20;4.33;;;3.93;;
305;SDS011;137;48.578;9.180;2022-10-18T06:54:49;5.30;;;3.10;;
305;SDS011;137;48.578;9.180;2022-10-18T06:57:16;4.00;;;3.60;;
305;SDS011;137;48.578;9.180;2022-10-18T06:59:43;7.20;;;4.60;;
305;SDS011;137;48.578;9.180;2022-10-18T07:02:11;7.40;;;4.43;;
305;SDS011;137;48.578;9.180;2022-10-18T07:04:41;7.33;;;4.67;;
305;SDS011;137;48.578;9.180;2022-10-18T07:07:08;6.68;;;4.30;;
305;SDS011;137;48.578;9.180;2022-10-18T07:09:35;7.15;;;4.75;;
305;SDS011;137;48.578;9.180;2022-10-18T07:12:07;7.23;;;4.13;;
305;SDS011;137;48.578;9.180;2022-10-18T07:14:36;4.40;;;3.67;;
305;SDS011;137;48.578;9.180;2022-10-18T07:17:06;10.40;;;4.27;;
305;SDS011;137;48.578;9.180;2022-10-18T07:19:35;4.90;;;3.57;;
305;SDS011;137;48.578;9.180;2022-10-18T07:22:10;4.60;;;3.90;;
305;SDS011;137;48.578;9.180;2022-10-18T07:24:40;10.43;;;4.37;;
305;SDS011;137;48.578;9.180;2022-10-18T07:27:15;4.80;;;3.73;;
305;SDS011;137;48.578;9.180;2022-10-18T07:29:49;10.47;;;3.83;;
305;SDS011;137;48.578;9.180;2022-10-18T07:32:19;4.67;;;4.13;;
305;SDS011;137;48.578;9.180;2022-10-18T07:34:53;5.23;;;3.30;;
305;SDS011;137;48.578;9.180;2022-10-18T07:37:27;4.80;;;3.83;;
305;SDS011;137;48.578;9.180;2022-10-18T07:40:01;5.30;;;3.80;;
305;SDS011;137;48.578;9.180;2022-10-18T07:42:30;5.43;;;3.60;;
305;SDS011;137;48.578;9.180;2022-10-18T07:45:00;5.33;;;3.40;;
305;SDS011;137;48.578;9.180;2022-10-18T07:47:30;8.23;;;3.70;;
305;SDS011;137;48.578;9.180;2022-10-18T07:50:00;5.03;;;3.50;;
305;SDS011;137;48.578;9.180;2022-10-18T07:52:39;4.00;;;3.50;;
305;SDS011;137;48.578;9.180;2022-10-18T07:55:06;9.70;;;3.63;;
305;SDS011;137;48.578;9.180;2022-10-18T07:57:45;5.00;;;3.50;;
305;SDS011;137;48.578;9.180;2022-10-18T08:00:13;4.33;;;3.93;;
305;SDS011;137;48.578;9.180;2022-10-18T08:02:47;5.40;;;4.00;;
305;SDS011;137;48.578;9.180;2022-10-18T08:05:18;4.97;;;3.80;;
305;SDS011;137;48.578;9.180;2022-10-18T08:08:06;6.10;;;3.80;;
305;SDS011;137;48.578;9.180;2022-10-18T08:10:47;15.17;;;4.80;;
305;SDS011;137;48.578;9.180;2022-10-18T08:13:18;7.10;;;4.03;;
305;SDS011;137;48.578;9.180;2022-10-18T08:15:58;4.40;;;4.00;;
305;SDS011;137;48.578;9.180;2022-10-18T08:22:14;6.17;;;4.47;;
305;SDS011;137;48.578;9.180;2022-10-18T08:24:41;5.00;;;4.23;;
305;SDS011;137;48.578;9.180;2022-10-18T08:27:08;5.07;;;3.53;;
305;SDS011;137;48.578;9.180;2022-10-18T08:29:35;4.80;;;4.10;;
305;SDS011;137;48.578;9.180;2022-10-18T08:32:02;5.03;;;4.53;;
305;SDS011;137;48.578;9.180;2022-10-18T08:34:29;5.80;;;3.40;;
305;SDS011;137;48.578;9.180;2022-10-18T08:36:58;3.20;;;2.90;;
305;SDS011;137;48.578;9.180;2022-10-18T08:39:30;6.47;;;3.43;;
305;SDS011;137;48.578;9.180;2022-10-18T08:42:10;3.80;;;2.73;;
305;SDS011;137;48.578;9.180;2022-10-18T08:45:08;3.93;;;3.53;;
305;SDS011;137;48.578;9.180;2022-10-18T08:47:40;3.97;;;3.30;;
305;SDS011;137;48.578;9.180;2022-10-18T08:50:14;4.10;;;3.70;;
305;SDS011;137;48.578;9.180;2022-10-18T08:52:48;8.23;;;3.90;;
305;SDS011;137;48.578;9.180;2022-10-18T08:55:20;3.80;;;3.13;;
305;SDS011;137;48.578;9.180;2022-10-18T08:57:50;4.90;;;3.53;;
305;SDS011;137;48.578;9.180;2022-10-18T09:00:18;4.77;;;4.13;;
305;SDS011;137;48.578;9.180;2022-10-18T09:02:51;3.90;;;3.03;;
305;SDS011;137;48.578;9.180;2022-10-18T09:05:30;5.43;;;3.43;;
305;SDS011;137;48.578;9.180;2022-10-18T09:08:18;8.57;;;3.80;;
305;SDS011;137;48.578;9.180;2022-10-18T09:14:11;5.57;;;3.73;;
305;SDS011;137;48.578;9.180;2022-10-18T09:17:03;4.70;;;3.80;;
305;SDS011;137;48.578;9.180;2022-10-18T09:19:42;3.93;;;3.57;;
305;SDS011;137;48.578;9.180;2022-10-18T09:22:24;11.60;;;3.03;;
305;SDS011;137;48.578;9.180;2022-10-18T09:25:05;3.80;;;3.30;;
305;SDS011;137;48.578;9.180;2022-10-18T09:27:44;4.73;;;2.80;;
305;SDS011;137;48.578;9.180;2022-10-18T09:30:18;3.00;;;2.70;;
305;SDS011;137;48.578;9.180;2022-10-18T09:32:55;3.83;;;2.57;;
305;SDS011;137;48.578;9.180;2022-10-18T09:35:33;8.70;;;2.93;;
305;SDS011;137;48.578;9.180;2022-10-18T09:38:08;4.40;;;2.67;;
305;SDS011;137;48.578;9.180;2022-10-18T09:40:44;3.23;;;2.93;;
305;SDS011;137;48.578;9.180;2022-10-18T11:11:12;6.27;;;3.20;;
305;SDS011;137;48.578;9.180;2022-10-18T11:13:45;3.90;;;2.63;;
305;SDS011;137;48.578;9.180;2022-10-18T11:16:16;4.40;;;2.97;;
305;SDS011;137;48.578;9.180;2022-10-18T11:18:58;6.30;;;2.63;;
305;SDS011;137;48.578;9.180;2022-10-18T11:21:49;3.67;;;2.50;;
305;SDS011;137;48.578;9.180;2022-10-18T11:24:52;4.10;;;2.88;;
305;SDS011;137;48.578;9.180;2022-10-18T11:27:31;3.50;;;2.83;;
305;SDS011;137;48.578;9.180;2022-10-18T11:30:24;3.60;;;2.30;;
305;SDS011;137;48.578;9.180;2022-10-18T11:33:19;3.63;;;2.37;;
305;SDS011;137;48.578;9.180;2022-10-18T11:36:06;5.23;;;2.90;;
305;SDS011;137;48.578;9.180;2022-10-18T11:38:39;4.38;;;2.88;;
305;SDS011;137;48.578;9.180;2022-10-18T11:41:33;3.20;;;2.37;;
305;SDS011;137;48.578;9.180;2022-10-18T12:35:46;2.25;;;2.00;;
305;SDS011;137;48.578;9.180;2022-10-18T12:38:22;3.00;;;1.98;;
305;SDS011;137;48.578;9.180;2022-10-18T12:40:53;2.40;;;1.63;;
305;SDS011;137;48.578;9.180;2022-10-18T12:43:21;4.97;;;1.80;;
305;SDS011;137;48.578;9.180;2022-10-18T12:45:51;3.10;;;1.63;;
305;SDS011;137;48.578;9.180;2022-10-18T12:48:32;3.97;;;1.57;;
305;SDS011;137;48.578;9.180;2022-10-18T12:51:05;2.17;;;1.50;;
305;SDS011;137;48.578;9.180;2022-10-18T12:53:37;2.30;;;1.33;;
305;SDS011;137;48.578;9.180;2022-10-18T12:56:31;2.70;;;1.53;;
305;SDS011;137;48.578;9.180;2022-10-18T13:04:56;4.53;;;2.40;;
305;SDS011;137;48.578;9.180;2022-10-18T13:07:35;6.53;;;3.67;;
305;SDS011;137;48.578;9.180;2022-10-18T13:13:22;5.77;;;3.30;;
305;SDS011;137;48.578;9.180;2022-10-18T13:16:26;6.90;;;3.70;;
305;SDS011;137;48.578;9.180;2022-10-18T13:19:09;9.23;;;4.27;;
305;SDS011;137;48.578;9.180;2022-10-18T13:21:45;5.87;;;3.47;;
305;SDS011;137;48.578;9.180;2022-10-18T13:24:24;6.23;;;2.70;;
305;SDS011;137;48.578;9.180;2022-10-18T13:27:12;3.50;;;2.73;;
305;SDS011;137;48.578;9.180;2022-10-18T13:32:53;6.80;;;3.10;;
305;SDS011;137;48.578;9.180;2022-10-18T13:38:21;2.30;;;2.03;;
305;SDS011;137;48.578;9.180;2022-10-18T13:41:08;3.60;;;2.33;;
305;SDS011;137;48.578;9.180;2022-10-18T13:43:55;5.57;;;2.37;;
305;SDS011;137;48.578;9.180;2022-10-18T13:46:24;5.03;;;2.00;;
305;SDS011;137;48.578;9.180;2022-10-18T13:49:52;3.13;;;1.80;;
305;SDS011;137;48.578;9.180;2022-10-18T13:55:52;4.00;;;1.83;;
305;SDS011;137;48.578;9.180;2022-10-18T13:58:35;4.27;;;1.40;;
305;SDS011;137;48.578;9.180;2022-10-18T14:01:14;4.33;;;1.80;;
305;SDS011;137;48.578;9.180;2022-10-18T14:04:00;5.23;;;2.60;;
305;SDS011;137;48.578;9.180;2022-10-18T14:06:46;3.70;;;1.37;;
305;SDS011;137;48.578;9.180;2022-10-18T14:09:15;8.40;;;1.77;;
305;SDS011;137;48.578;9.180;2022-10-18T14:11:45;3.87;;;1.60;;
305;SDS011;137;48.578;9.180;2022-10-18T14:14:17;4.80;;;1.93;;
305;SDS011;137;48.578;9.180;2022-10-18T14:16:51;3.23;;;1.50;;
305;SDS011;137;48.578;9.180;2022-10-18T14:19:25;3.90;;;1.70;;
305;SDS011;137;48.578;9.180;2022-10-18T14:21:57;4.03;;;1.90;;
305;SDS011;137;48.578;9.180;2022-10-18T14:24:29;7.40;;;1.60;;
305;SDS011;137;48.578;9.180;2022-10-18T14:27:09;3.47;;;1.70;;
305;SDS011;137;48.578;9.180;2022-10-18T14:29:44;5.20;;;1.77;;
305;SDS011;137;48.578;9.180;2022-10-18T14:32:17;3.00;;;1.93;;
305;SDS011;137;48.578;9.180;2022-10-18T14:34:49;1.50;;;1.37;;
305;SDS011;137;48.578;9.180;2022-10-18T14:37:18;4.33;;;1.50;;
305;SDS011;137;48.578;9.180;2022-10-18T14:39:51;2.37;;;1.50;;
305;SDS011;137;48.578;9.180;2022-10-18T14:42:19;4.73;;;1.60;;
305;SDS011;137;48.578;9.180;2022-10-18T14:44:48;3.80;;;2.00;;
305;SDS011;137;48.578;9.180;2022-10-18T14:47:16;3.70;;;1.60;;
305;SDS011;137;48.578;9.180;2022-10-18T14:49:47;5.40;;;2.00;;
305;SDS011;137;48.578;9.180;2022-10-18T14:52:15;6.07;;;1.83;;
305;SDS011;137;48.578;9.180;2022-10-18T14:54:43;2.77;;;1.80;;
305;SDS011;137;48.578;9.180;2022-10-18T14:57:14;3.20;;;1.90;;
305;SDS011;137;48.578;9.180;2022-10-18T14:59:44;4.17;;;2.00;;
305;SDS011;137;48.578;9.180;2022-10-18T15:02:18;7.33;;;2.40;;
305;SDS011;137;48.578;9.180;2022-10-18T15:04:53;2.73;;;2.00;;
305;SDS011;137;48.578;9.180;2022-10-18T15:07:21;3.10;;;1.60;;
305;SDS011;137;48.578;9.180;2022-10-18T15:09:49;5.47;;;2.40;;
305;SDS011;137;48.578;9.180;2022-10-18T15:12:17;6.33;;;2.50;;
305;SDS011;137;48.578;9.180;2022-10-18T15:14:44;6.10;;;1.77;;
305;SDS011;137;48.578;9.180;2022-10-18T15:17:14;4.37;;;2.10;;
305;SDS011;137;48.578;9.180;2022-10-18T15:19:53;4.77;;;1.80;;
305;SDS011;137;48.578;9.180;2022-10-18T15:22:25;3.87;;;1.63;;
305;SDS011;137;48.578;9.180;2022-10-18T15:25:04;4.37;;;2.33;;
305;SDS011;137;48.578;9.180;2022-10-18T15:27:37;3.63;;;2.03;;
305;SDS011;137;48.578;9.180;2022-10-18T15:30:05;2.20;;;1.60;;
305;SDS011;137;48.578;9.180;2022-10-18T15:32:36;2.53;;;2.10;;
305;SDS011;137;48.578;9.180;2022-10-18T15:35:05;2.87;;;2.03;;
305;SDS011;137;48.578;9.180;2022-10-18T15:37:35;3.20;;;2.00;;
305;SDS011;137;48.578;9.180;2022-10-18T15:40:15;4.80;;;1.80;;
305;SDS011;137;48.578;9.180;2022-10-18T15:42:56;2.70;;;1.57;;
305;SDS011;137;48.578;9.180;2022-10-18T15:48:23;2.60;;;1.63;;
305;SDS011;137;48.578;9.180;2022-10-18T15:50:59;3.67;;;2.10;;
305;SDS011;137;48.578;9.180;2022-10-18T15:53:32;3.27;;;2.17;;
305;SDS011;137;48.578;9.180;2022-10-18T15:56:02;2.57;;;2.33;;
305;SDS011;137;48.578;9.180;2022-10-18T15:58:38;5.07;;;2.53;;
305;SDS011;137;48.578;9.180;2022-10-18T16:01:12;2.97;;;2.37;;
305;SDS011;137;48.578;9.180;2022-10-18T16:03:42;4.10;;;2.63;;
305;SDS011;137;48.578;9.180;2022-10-18T16:06:10;2.97;;;2.30;;
305;SDS011;137;48.578;9.180;2022-10-18T16:08:38;4.33;;;2.63;;
305;SDS011;137;48.578;9.180;2022-10-18T16:11:06;3.90;;;2.23;;
305;SDS011;137;48.578;9.180;2022-10-18T16:13:37;2.43;;;2.07;;
305;SDS011;137;48.578;9.180;2022-10-18T16:16:04;5.23;;;2.67;;
305;SDS011;137;48.578;9.180;2022-10-18T16:18:31;2.97;;;2.67;;
305;SDS011;137;48.578;9.180;2022-10-18T16:21:00;3.30;;;2.43;;
305;SDS011;137;48.578;9.180;2022-10-18T16:23:26;14.13;;;4.20;;
305;SDS011;137;48.578;9.180;2022-10-18T16:25:53;3.70;;;2.40;;
305;SDS011;137;48.578;9.180;2022-10-18T16:28:21;4.27;;;2.40;;
305;SDS011;137;48.578;9.180;2022-10-18T16:30:51;3.87;;;3.47;;
305;SDS011;137;48.578;9.180;2022-10-18T16:33:20;7.27;;;3.10;;
305;SDS011;137;48.578;9.180;2022-10-18T16:35:48;3.80;;;2.83;;
305;SDS011;137;48.578;9.180;2022-10-18T16:38:25;2.90;;;2.70;;
305;SDS011;137;48.578;9.180;2022-10-18T16:40:53;6.00;;;3.67;;
305;SDS011;137;48.578;9.180;2022-10-18T16:43:20;9.40;;;2.33;;
305;SDS011;137;48.578;9.180;2022-10-18T16:45:47;4.80;;;2.83;;
305;SDS011;137;48.578;9.180;2022-10-18T16:48:15;2.97;;;2.67;;
305;SDS011;137;48.578;9.180;2022-10-18T16:50:44;4.83;;;3.23;;
305;SDS011;137;48.578;9.180;2022-10-18T16:53:11;5.00;;;4.50;;
305;SDS011;137;48.578;9.180;2022-10-18T16:55:40;4.37;;;3.20;;
305;SDS011;137;48.578;9.180;2022-10-18T16:58:10;6.83;;;3.60;;
305;SDS011;137;48.578;9.180;2022-10-18T17:00:41;3.87;;;3.47;;
305;SDS011;137;48.578;9.180;2022-10-18T17:03:10;3.53;;;3.30;;
305;SDS011;137;48.578;9.180;2022-10-18T17:05:36;8.20;;;4.20;;
305;SDS011;137;48.578;9.180;2022-10-18T17:08:03;3.70;;;3.37;;
305;SDS011;137;48.578;9.180;2022-10-18T17:10:31;3.57;;;2.77;;
305;SDS011;137;48.578;9.180;2022-10-18T17:12:59;5.50;;;3.30;;
305;SDS011;137;48.578;9.180;2022-10-18T17:15:26;9.37;;;3.57;;
305;SDS011;137;48.578;9.180;2022-10-18T17:17:53;4.30;;;3.40;;
305;SDS011;137;48.578;9.180;2022-10-18T17:20:23;5.63;;;3.83;;
305;SDS011;137;48.578;9.180;2022-10-18T17:22:51;4.37;;;3.50;;
305;SDS011;137;48.578;9.180;2022-10-18T17:25:19;9.30;;;3.73;;
305;SDS011;137;48.578;9.180;2022-10-18T17:27:46;7.70;;;3.90;;
305;SDS011;137;48.578;9.180;2022-10-18T17:30:14;5.43;;;3.80;;
305;SDS011;137;48.578;9.180;2022-10-18T17:32:41;6.13;;;4.47;;
305;SDS011;137;48.578;9.180;2022-10-18T17:35:09;4.13;;;3.73;;
305;SDS011;137;48.578;9.180;2022-10-18T17:37:36;3.93;;;3.63;;
305;SDS011;137;48.578;9.180;2022-10-18T17:40:04;6.50;;;3.63;;
305;SDS011;137;48.578;9.180;2022-10-18T17:42:31;4.27;;;3.97;;
305;SDS011;137;48.578;9.180;2022-10-18T17:44:58;3.70;;;3.30;;
305;SDS011;137;48.578;9.180;2022-10-18T17:47:27;6.13;;;4.13;;
305;SDS011;137;48.578;9.180;2022-10-18T17:49:53;6.97;;;4.70;;
305;SDS011;137;48.578;9.180;2022-10-18T17:52:20;6.27;;;3.30;;
305;SDS011;137;48.578;9.180;2022-10-18T17:54:47;4.50;;;3.40;;
305;SDS011;137;48.578;9.180;2022-10-18T17:57:14;3.40;;;2.93;;
305;SDS011;137;48.578;9.180;2022-10-18T17:59:41;4.23;;;3.83;;
305;SDS011;137;48.578;9.180;2022-10-18T18:02:08;4.90;;;3.57;;
305;SDS011;137;48.578;9.180;2022-10-18T18:04:37;4.20;;;3.80;;
305;SDS011;137;48.578;9.180;2022-10-18T18:07:04;6.60;;;4.20;;
305;SDS011;137;48.578;9.180;2022-10-18T18:09:30;5.97;;;3.90;;
305;SDS011;137;48.578;9.180;2022-10-18T18:11:57;4.80;;;4.40;;
305;SDS011;137;48.578;9.180;2022-10-18T18:14:24;6.50;;;4.30;;
305;SDS011;137;48.578;9.180;2022-10-18T18:16:51;5.30;;;4.80;;
305;SDS011;137;48.578;9.180;2022-10-18T18:19:18;5.67;;;4.73;;
305;SDS011;137;48.578;9.180;2022-10-18T18:21:46;4.83;;;4.20;;
305;SDS011;137;48.578;9.180;2022-10-18T18:24:13;4.83;;;4.33;;
305;SDS011;137;48.578;9.180;2022-10-18T18:26:41;9.87;;;4.40;;
305;SDS011;137;48.578;9.180;2022-10-18T18:29:09;4.90;;;4.23;;
305;SDS011;137;48.578;9.180;2022-10-18T18:31:37;5.37;;;4.90;;
305;SDS011;137;48.578;9.180;2022-10-18T18:34:04;4.93;;;4.53;;
305;SDS011;137;48.578;9.180;2022-10-18T18:36:31;9.00;;;5.70;;
305;SDS011;137;48.578;9.180;2022-10-18T18:38:59;5.10;;;4.60;;
305;SDS011;137;48.578;9.180;2022-10-18T18:41:26;5.80;;;4.90;;
305;SDS011;137;48.578;9.180;2022-10-18T18:43:54;6.70;;;4.50;;
305;SDS011;137;48.578;9.180;2022-10-18T18:46:23;5.37;;;4.57;;
305;SDS011;137;48.578;9.180;2022-10-18T18:48:51;5.20;;;4.10;;
305;SDS011;137;48.578;9.180;2022-10-18T18:51:19;6.20;;;4.77;;
305;SDS011;137;48.578;9.180;2022-10-18T18:53:48;11.80;;;5.53;;
305;SDS011;137;48.578;9.180;2022-10-18T18:56:17;5.27;;;4.60;;
305;SDS011;137;48.578;9.180;2022-10-18T18:58:47;5.23;;;4.80;;
305;SDS011;137;48.578;9.180;2022-10-18T19:01:15;6.97;;;4.80;;